Time;durP1;ratioP1;P1;durP2;ratioP2;P2;SDS_P1;SDS_P2;PMS_P1;PMS_P2;Temp;Humidity;BMP_temperature;BMP_pressure;BME280_temperature;BME280_humidity;BME280_pressure;Samples;Min_cycle;Max_cycle;Signal;HPM_P1;HPM_P2
2021/06/08 00:00:19;;;;;;;30.17;26.63;;;;;;;;;;5053720;28;20045;-59
2021/06/08 00:02:45;;;;;;;32.30;27.35;;;;;;;;;;5054230;28;20343;-58
2021/06/08 00:05:11;;;;;;;30.80;27.63;;;;;;;;;;5053907;28;20028;-59
2021/06/08 00:07:37;;;;;;;30.98;27.70;;;;;;;;;;5053683;28;20041;-59
2021/06/08 00:10:04;;;;;;;31.67;28.48;;;;;;;;;;5036179;28;20033;-58
2021/06/08 00:12:30;;;;;;;29.98;26.90;;;;;;;;;;5053472;28;20040;-59
2021/06/08 00:14:56;;;;;;;29.98;26.90;;;;;;;;;;5053707;28;20116;-58
2021/06/08 00:17:22;;;;;;;31.00;27.88;;;;;;;;;;5054194;28;20051;-58
2021/06/08 00:19:49;;;;;;;32.55;28.80;;;;;;;;;;5054277;28;20029;-58
2021/06/08 00:22:15;;;;;;;30.65;27.40;;;;;;;;;;5053698;28;20021;-59
2021/06/08 00:24:41;;;;;;;32.88;28.48;;;;;;;;;;5054224;28;20083;-58
2021/06/08 00:27:08;;;;;;;29.52;26.60;;;;;;;;;;5053373;28;20037;-58
2021/06/08 00:29:34;;;;;;;29.85;26.73;;;;;;;;;;5053632;28;20116;-58
2021/06/08 00:32:00;;;;;;;31.70;28.15;;;;;;;;;;5035415;28;20043;-59
2021/06/08 00:34:26;;;;;;;32.67;29.13;;;;;;;;;;5053511;28;20025;-59
2021/06/08 00:36:52;;;;;;;30.63;26.90;;;;;;;;;;5036172;28;20036;-59
2021/06/08 00:39:18;;;;;;;30.98;27.67;;;;;;;;;;5055997;28;20060;-58
2021/06/08 00:41:44;;;;;;;30.58;27.27;;;;;;;;;;5058162;28;20352;-59
2021/06/08 00:44:13;;;;;;;29.17;26.00;;;;;;;;;;5057924;28;20029;-59
2021/06/08 00:46:40;;;;;;;29.80;26.63;;;;;;;;;;5057445;28;20040;-59
2021/06/08 00:49:06;;;;;;;31.08;26.70;;;;;;;;;;5057817;28;20025;-59
2021/06/08 00:51:34;;;;;;;32.58;29.10;;;;;;;;;;5057766;28;20359;-59
2021/06/08 00:54:05;;;;;;;28.80;25.88;;;;;;;;;;5039403;28;20025;-59
2021/06/08 00:56:32;;;;;;;30.08;26.50;;;;;;;;;;5057636;28;20094;-59
2021/06/08 00:58:58;;;;;;;29.77;26.73;;;;;;;;;;5057168;28;20025;-59
2021/06/08 01:01:24;;;;;;;30.92;27.80;;;;;;;;;;5057810;28;20079;-59
2021/06/08 01:03:50;;;;;;;32.17;27.60;;;;;;;;;;5057256;28;20029;-59
2021/06/08 01:06:18;;;;;;;30.40;27.40;;;;;;;;;;5057056;28;20027;-58
2021/06/08 01:08:45;;;;;;;31.85;28.45;;;;;;;;;;5038931;28;20120;-59
2021/06/08 01:11:11;;;;;;;31.48;28.48;;;;;;;;;;5057427;28;20033;-58
2021/06/08 01:13:37;;;;;;;31.27;27.90;;;;;;;;;;5055892;28;20031;-58
2021/06/08 01:16:03;;;;;;;38.60;30.67;;;;;;;;;;5056981;28;20108;-58
2021/06/08 01:18:29;;;;;;;31.92;28.50;;;;;;;;;;5057512;28;20063;-58
2021/06/08 01:21:03;;;;;;;36.50;30.08;;;;;;;;;;5057796;28;20052;-58
2021/06/08 01:23:29;;;;;;;35.20;31.25;;;;;;;;;;5056840;28;20021;-58
2021/06/08 01:25:58;;;;;;;32.20;28.77;;;;;;;;;;5056851;28;20036;-59
2021/06/08 01:28:24;;;;;;;29.98;25.25;;;;;;;;;;5057036;28;20371;-58
2021/06/08 01:30:52;;;;;;;24.67;22.15;;;;;;;;;;5057106;28;20082;-58
2021/06/08 01:33:21;;;;;;;25.42;22.77;;;;;;;;;;5056748;28;20063;-58
2021/06/08 01:35:48;;;;;;;26.50;23.25;;;;;;;;;;5038493;28;20025;-58
2021/06/08 01:38:15;;;;;;;27.30;24.30;;;;;;;;;;5057158;28;20178;-58
2021/06/08 01:40:41;;;;;;;25.88;22.15;;;;;;;;;;5056848;28;20033;-58
2021/06/08 01:43:07;;;;;;;27.25;23.40;;;;;;;;;;5038728;28;20455;-58
2021/06/08 01:45:33;;;;;;;27.65;24.75;;;;;;;;;;5056708;28;20029;-58
2021/06/08 01:47:59;;;;;;;30.67;24.23;;;;;;;;;;5056631;28;20033;-58
2021/06/08 01:50:26;;;;;;;29.02;26.02;;;;;;;;;;5056298;28;20017;-58
2021/06/08 01:53:12;;;;;;;31.88;28.17;;;;;;;;;;5056610;28;20075;-58
2021/06/08 01:55:40;;;;;;;29.33;26.00;;;;;;;;;;5056653;28;20025;-58
2021/06/08 01:58:09;;;;;;;30.88;27.35;;;;;;;;;;5056207;28;20059;-58
2021/06/08 02:00:40;;;;;;;29.23;26.20;;;;;;;;;;5056218;28;20045;-58
2021/06/08 02:03:25;;;;;;;35.25;29.48;;;;;;;;;;5039163;28;20112;-58
2021/06/08 02:05:51;;;;;;;35.38;30.27;;;;;;;;;;5056400;28;20063;-58
2021/06/08 02:08:36;;;;;;;37.08;31.35;;;;;;;;;;5038912;28;20416;-58
2021/06/08 02:11:07;;;;;;;31.33;27.90;;;;;;;;;;5056760;28;20078;-58
2021/06/08 02:13:45;;;;;;;34.67;28.92;;;;;;;;;;5056274;28;20094;-58
2021/06/08 02:16:14;;;;;;;33.05;29.50;;;;;;;;;;5055885;28;20029;-58
2021/06/08 02:18:41;;;;;;;33.67;29.73;;;;;;;;;;5055802;28;20513;-58
2021/06/08 02:21:08;;;;;;;30.98;27.65;;;;;;;;;;5056145;28;20040;-58
2021/06/08 02:23:35;;;;;;;33.80;29.30;;;;;;;;;;5055530;28;20375;-58
2021/06/08 02:26:01;;;;;;;32.88;29.30;;;;;;;;;;5055930;28;20443;-58
2021/06/08 02:28:30;;;;;;;38.78;28.52;;;;;;;;;;5055604;28;20041;-58
2021/06/08 02:30:56;;;;;;;33.90;29.90;;;;;;;;;;5056465;28;20120;-58
2021/06/08 02:33:24;;;;;;;33.72;28.05;;;;;;;;;;5055027;28;20552;-58
2021/06/08 02:35:51;;;;;;;34.75;30.70;;;;;;;;;;5055558;28;20025;-58
2021/06/08 02:38:17;;;;;;;32.10;29.00;;;;;;;;;;5037539;28;20038;-58
2021/06/08 02:40:43;;;;;;;34.42;29.13;;;;;;;;;;5055410;28;20028;-58
2021/06/08 02:43:10;;;;;;;33.13;29.02;;;;;;;;;;5055417;28;20029;-58
2021/06/08 02:45:36;;;;;;;34.53;30.58;;;;;;;;;;5055659;28;20398;-58
2021/06/08 02:48:02;;;;;;;40.70;33.95;;;;;;;;;;5038156;28;20120;-58
2021/06/08 02:50:28;;;;;;;35.60;31.92;;;;;;;;;;5056010;28;20057;-58
2021/06/08 02:52:55;;;;;;;40.30;32.42;;;;;;;;;;5055195;28;20021;-58
2021/06/08 02:55:22;;;;;;;37.28;32.72;;;;;;;;;;5055478;28;20029;-58
2021/06/08 02:57:48;;;;;;;35.42;31.10;;;;;;;;;;5055091;28;20029;-58
2021/06/08 03:00:15;;;;;;;36.00;32.10;;;;;;;;;;5054970;28;20095;-58
2021/06/08 03:02:42;;;;;;;37.45;29.55;;;;;;;;;;5054444;28;20028;-58
2021/06/08 03:05:17;;;;;;;34.42;30.60;;;;;;;;;;5054952;28;20035;-58
2021/06/08 03:07:46;;;;;;;34.40;30.65;;;;;;;;;;5055366;28;20036;-58
2021/06/08 03:10:14;;;;;;;34.00;30.33;;;;;;;;;;5037022;28;20032;-58
2021/06/08 03:12:54;;;;;;;34.00;30.08;;;;;;;;;;5055143;28;20083;-58
2021/06/08 03:15:24;;;;;;;32.95;29.58;;;;;;;;;;5054431;28;20479;-58
2021/06/08 03:17:50;;;;;;;37.50;31.80;;;;;;;;;;5036792;28;20040;-58
2021/06/08 03:20:25;;;;;;;34.50;30.77;;;;;;;;;;5036522;28;20021;-58
2021/06/08 03:22:54;;;;;;;37.38;31.60;;;;;;;;;;5055425;28;20021;-58
2021/06/08 03:25:25;;;;;;;36.28;30.75;;;;;;;;;;5054859;28;20025;-58
2021/06/08 03:27:53;;;;;;;34.78;29.23;;;;;;;;;;5054827;28;20041;-58
2021/06/08 03:30:19;;;;;;;35.38;30.50;;;;;;;;;;5054498;28;20025;-58
2021/06/08 03:32:46;;;;;;;34.85;31.13;;;;;;;;;;5054515;28;20107;-58
2021/06/08 03:35:12;;;;;;;37.53;32.08;;;;;;;;;;5054447;28;20029;-58
2021/06/08 03:37:39;;;;;;;38.92;31.77;;;;;;;;;;5036582;28;20039;-58
2021/06/08 03:40:06;;;;;;;35.10;29.00;;;;;;;;;;5036189;28;20032;-58
2021/06/08 03:42:32;;;;;;;32.67;29.35;;;;;;;;;;5054635;28;20029;-58
2021/06/08 03:44:58;;;;;;;38.63;30.40;;;;;;;;;;5054182;28;20025;-59
2021/06/08 03:47:24;;;;;;;33.65;30.25;;;;;;;;;;5054141;28;20029;-59
2021/06/08 03:49:54;;;;;;;37.67;30.85;;;;;;;;;;5036314;28;20028;-59
2021/06/08 03:52:20;;;;;;;38.05;31.88;;;;;;;;;;5054805;28;20136;-59
2021/06/08 03:54:46;;;;;;;35.00;30.40;;;;;;;;;;5036832;28;20435;-59
2021/06/08 03:57:13;;;;;;;34.42;30.52;;;;;;;;;;5053699;28;20088;-59
2021/06/08 03:59:42;;;;;;;34.15;29.73;;;;;;;;;;5035858;28;20403;-59
2021/06/08 04:02:09;;;;;;;33.67;30.00;;;;;;;;;;5054012;28;20024;-59
2021/06/08 04:04:35;;;;;;;35.72;31.90;;;;;;;;;;5053991;28;20025;-58
2021/06/08 04:07:01;;;;;;;34.88;31.25;;;;;;;;;;5053470;28;20025;-58
2021/06/08 04:09:27;;;;;;;37.03;32.70;;;;;;;;;;5053932;28;20033;-58
2021/06/08 04:11:59;;;;;;;37.58;30.98;;;;;;;;;;5054384;28;20028;-58
2021/06/08 04:14:26;;;;;;;34.83;31.23;;;;;;;;;;5054562;28;20451;-58
2021/06/08 04:16:52;;;;;;;35.70;32.00;;;;;;;;;;5053779;28;20025;-58
2021/06/08 04:19:18;;;;;;;34.72;30.38;;;;;;;;;;5053391;28;20573;-62
2021/06/08 04:21:44;;;;;;;34.03;30.38;;;;;;;;;;5053611;28;20027;-58
2021/06/08 04:24:11;;;;;;;39.00;30.08;;;;;;;;;;5052613;28;20085;-58
2021/06/08 04:26:37;;;;;;;33.00;29.48;;;;;;;;;;5053571;28;20036;-58
2021/06/08 04:29:03;;;;;;;35.28;31.60;;;;;;;;;;5053568;28;20091;-58
2021/06/08 04:31:29;;;;;;;34.38;30.75;;;;;;;;;;5054098;28;20035;-58
2021/06/08 04:33:55;;;;;;;33.78;29.75;;;;;;;;;;5035765;28;20025;-58
2021/06/08 04:36:24;;;;;;;35.92;31.10;;;;;;;;;;5052444;28;20116;-58
2021/06/08 04:38:56;;;;;;;37.45;33.50;;;;;;;;;;5053755;28;20025;-58
2021/06/08 04:41:22;;;;;;;33.65;30.33;;;;;;;;;;5054312;28;20022;-58
2021/06/08 04:43:48;;;;;;;33.60;30.00;;;;;;;;;;5036488;28;20025;-58
2021/06/08 04:46:15;;;;;;;36.13;31.88;;;;;;;;;;5053523;28;20033;-58
2021/06/08 04:48:42;;;;;;;34.17;30.65;;;;;;;;;;5052147;28;20048;-59
2021/06/08 04:51:09;;;;;;;35.50;31.27;;;;;;;;;;5053727;28;20025;-59
2021/06/08 04:53:35;;;;;;;35.45;31.65;;;;;;;;;;5052921;28;20495;-59
2021/06/08 04:56:01;;;;;;;38.75;32.10;;;;;;;;;;5036043;28;20032;-57
2021/06/08 04:58:27;;;;;;;37.60;31.45;;;;;;;;;;5053635;28;20112;-57
2021/06/08 05:01:00;;;;;;;39.72;33.38;;;;;;;;;;5035505;28;20052;-59
2021/06/08 05:03:52;;;;;;;35.67;30.63;;;;;;;;;;5053794;28;20029;-59
2021/06/08 05:06:26;;;;;;;35.80;31.88;;;;;;;;;;5049600;28;20033;-59
2021/06/08 05:08:58;;;;;;;35.03;30.15;;;;;;;;;;5053350;28;20394;-59
2021/06/08 05:11:24;;;;;;;35.95;31.73;;;;;;;;;;5054097;28;20359;-59
2021/06/08 05:13:51;;;;;;;35.67;30.83;;;;;;;;;;5052865;28;20474;-59
2021/06/08 05:16:17;;;;;;;32.78;29.27;;;;;;;;;;5035392;28;20033;-59
2021/06/08 05:18:45;;;;;;;35.10;31.40;;;;;;;;;;5035275;28;20040;-59
2021/06/08 05:21:12;;;;;;;34.72;30.45;;;;;;;;;;5053211;28;20029;-59
2021/06/08 05:23:38;;;;;;;39.83;34.40;;;;;;;;;;5036127;28;20402;-59
2021/06/08 05:26:04;;;;;;;38.58;32.50;;;;;;;;;;5056763;28;20032;-60
2021/06/08 05:28:33;;;;;;;35.50;31.40;;;;;;;;;;5038828;28;20123;-58
2021/06/08 05:33:58;;;;;;;36.80;31.23;;;;;;;;;;5041751;28;20058;-59
2021/06/08 05:36:34;;;;;;;34.53;30.77;;;;;;;;;;5056357;28;20033;-59
2021/06/08 05:39:00;;;;;;;37.75;30.70;;;;;;;;;;5056900;28;20083;-59
2021/06/08 05:41:27;;;;;;;33.30;29.80;;;;;;;;;;5056949;28;20033;-59
2021/06/08 05:43:54;;;;;;;33.45;29.05;;;;;;;;;;5056226;28;20025;-59
2021/06/08 05:46:20;;;;;;;38.03;33.03;;;;;;;;;;5056141;28;20025;-59
2021/06/08 05:48:46;;;;;;;35.33;31.70;;;;;;;;;;5055392;28;20025;-59
2021/06/08 05:51:12;;;;;;;37.13;30.63;;;;;;;;;;5057000;28;20029;-59
2021/06/08 05:53:46;;;;;;;37.08;33.00;;;;;;;;;;5038887;28;20029;-58
2021/06/08 05:56:12;;;;;;;33.97;29.95;;;;;;;;;;5056275;28;20032;-58
2021/06/08 05:58:38;;;;;;;36.83;30.20;;;;;;;;;;5037888;28;20029;-58
2021/06/08 06:01:08;;;;;;;34.00;29.08;;;;;;;;;;5038464;28;20045;-58
2021/06/08 06:03:34;;;;;;;35.13;31.48;;;;;;;;;;5056189;28;20028;-59
2021/06/08 06:06:00;;;;;;;36.92;32.05;;;;;;;;;;5054910;28;20033;-58
2021/06/08 06:08:26;;;;;;;40.67;35.22;;;;;;;;;;5055991;28;20040;-58
2021/06/08 06:10:56;;;;;;;38.58;32.47;;;;;;;;;;5038509;28;20025;-58
2021/06/08 06:13:26;;;;;;;37.05;31.80;;;;;;;;;;5056300;28;20035;-58
2021/06/08 06:15:52;;;;;;;;;;;;;;;;;;5056373;28;20103;-58
2021/06/08 06:18:19;;;;;;;32.58;29.05;;;;;;;;;;5055904;28;19944;-58
2021/06/08 06:20:50;;;;;;;36.60;31.42;;;;;;;;;;5056671;28;20025;-59
2021/06/08 06:23:17;;;;;;;35.30;31.48;;;;;;;;;;5056346;28;20032;-58
2021/06/08 06:25:43;;;;;;;34.90;31.35;;;;;;;;;;5055774;28;20448;-58
2021/06/08 06:28:13;;;;;;;36.03;30.48;;;;;;;;;;5056427;28;20094;-58
2021/06/08 06:30:42;;;;;;;34.97;31.40;;;;;;;;;;5055579;28;20484;-58
2021/06/08 06:33:08;;;;;;;32.33;28.85;;;;;;;;;;5055516;28;20021;-58
2021/06/08 06:35:34;;;;;;;34.38;30.58;;;;;;;;;;5037753;28;20112;-58
2021/06/08 06:38:05;;;;;;;35.58;30.05;;;;;;;;;;5054964;28;20025;-58
2021/06/08 06:40:33;;;;;;;34.60;30.55;;;;;;;;;;5055504;28;20535;-59
2021/06/08 06:43:03;;;;;;;35.53;31.88;;;;;;;;;;5037178;28;20029;-59
2021/06/08 06:45:33;;;;;;;32.40;29.07;;;;;;;;;;5056178;28;20032;-58
2021/06/08 06:48:03;;;;;;;35.75;31.35;;;;;;;;;;5055340;28;20033;-59
2021/06/08 06:50:32;;;;;;;33.20;29.50;;;;;;;;;;5055122;28;20032;-58
2021/06/08 06:52:59;;;;;;;33.42;29.52;;;;;;;;;;5055259;28;20506;-59
2021/06/08 06:55:26;;;;;;;31.95;28.75;;;;;;;;;;5037296;28;20481;-58
2021/06/08 06:57:52;;;;;;;34.30;28.88;;;;;;;;;;5055370;28;20132;-58
2021/06/08 07:00:19;;;;;;;33.65;30.13;;;;;;;;;;5055594;28;20099;-58
2021/06/08 07:02:45;;;;;;;32.92;29.58;;;;;;;;;;5055561;28;20103;-58
2021/06/08 07:05:16;;;;;;;31.63;28.25;;;;;;;;;;5037129;28;20017;-58
2021/06/08 07:07:46;;;;;;;30.42;27.17;;;;;;;;;;5055048;28;20043;-58
2021/06/08 07:10:40;;;;;;;30.33;26.83;;;;;;;;;;5122845;27;20438;-58
2021/06/08 07:13:06;;;;;;;34.67;31.02;;;;;;;;;;5091794;28;20105;-58
2021/06/08 07:15:33;;;;;;;34.38;29.83;;;;;;;;;;5090210;28;20051;-58
2021/06/08 07:17:59;;;;;;;35.70;29.77;;;;;;;;;;5091491;28;20098;-58
2021/06/08 07:20:26;;;;;;;33.05;29.15;;;;;;;;;;5091194;28;20024;-58
2021/06/08 07:22:57;;;;;;;33.42;28.60;;;;;;;;;;5091858;28;20170;-58
2021/06/08 07:25:24;;;;;;;32.45;28.98;;;;;;;;;;5091015;28;20027;-58
2021/06/08 07:27:50;;;;;;;36.40;30.60;;;;;;;;;;5091046;28;20086;-58
2021/06/08 07:30:17;;;;;;;33.60;30.08;;;;;;;;;;5089554;28;20382;-58
2021/06/08 07:32:55;;;;;;;31.88;28.58;;;;;;;;;;5090949;28;20029;-58
2021/06/08 07:35:28;;;;;;;33.85;29.90;;;;;;;;;;5090892;28;20036;-58
2021/06/08 07:37:55;;;;;;;32.50;29.27;;;;;;;;;;5090187;28;20025;-58
2021/06/08 07:40:23;;;;;;;32.67;29.17;;;;;;;;;;5090822;28;20028;-58
2021/06/08 07:42:54;;;;;;;34.30;29.10;;;;;;;;;;5090716;28;20059;-58
2021/06/08 07:45:22;;;;;;;33.85;27.83;;;;;;;;;;5090214;28;20470;-58
2021/06/08 07:47:50;;;;;;;34.88;27.35;;;;;;;;;;5090670;28;20107;-58
2021/06/08 07:50:16;;;;;;;31.55;27.80;;;;;;;;;;5090994;28;20354;-58
2021/06/08 07:52:42;;;;;;;34.72;29.42;;;;;;;;;;5096264;28;20023;-58
2021/06/08 07:55:08;;;;;;;36.70;29.05;;;;;;;;;;5109632;28;20043;-58
2021/06/08 07:57:34;;;;;;;32.03;27.88;;;;;;;;;;5110703;28;20031;-58
2021/06/08 08:00:01;;;;;;;31.25;27.52;;;;;;;;;;5110777;28;20109;-58
2021/06/08 08:02:29;;;;;;;32.28;27.35;;;;;;;;;;5110738;28;20020;-58
2021/06/08 08:04:57;;;;;;;30.63;27.30;;;;;;;;;;5110578;28;20028;-58
2021/06/08 08:07:24;;;;;;;31.58;28.33;;;;;;;;;;5109959;28;20554;-58
2021/06/08 08:09:50;;;;;;;33.33;29.83;;;;;;;;;;5111522;28;20050;-58
2021/06/08 08:12:17;;;;;;;30.27;27.02;;;;;;;;;;5111354;28;20020;-58
2021/06/08 08:14:46;;;;;;;33.60;27.55;;;;;;;;;;5111038;28;20080;-58
2021/06/08 08:17:13;;;;;;;35.47;29.40;;;;;;;;;;5110745;28;20104;-58
2021/06/08 08:19:40;;;;;;;35.83;29.90;;;;;;;;;;5109852;28;20265;-58
2021/06/08 08:22:06;;;;;;;33.75;28.73;;;;;;;;;;5097025;28;20024;-58
2021/06/08 08:24:32;;;;;;;35.08;28.52;;;;;;;;;;5095325;28;20062;-58
2021/06/08 08:27:00;;;;;;;36.22;27.70;;;;;;;;;;5096665;28;20120;-58
2021/06/08 08:29:26;;;;;;;31.20;27.92;;;;;;;;;;5096980;28;20028;-58
2021/06/08 08:31:52;;;;;;;30.63;26.52;;;;;;;;;;5096432;28;20484;-58
2021/06/08 08:34:18;;;;;;;31.58;27.92;;;;;;;;;;5096762;28;20082;-58
2021/06/08 08:36:44;;;;;;;35.28;29.08;;;;;;;;;;5096450;28;20024;-58
2021/06/08 08:39:11;;;;;;;30.23;27.00;;;;;;;;;;5096397;28;20085;-58
2021/06/08 08:41:38;;;;;;;38.40;29.35;;;;;;;;;;5096184;28;20661;-58
2021/06/08 08:44:06;;;;;;;34.58;30.98;;;;;;;;;;5096569;28;20373;-58
2021/06/08 08:46:32;;;;;;;33.47;29.77;;;;;;;;;;5096191;28;20063;-58
2021/06/08 08:48:58;;;;;;;30.23;26.98;;;;;;;;;;5096165;28;20032;-59
2021/06/08 08:51:25;;;;;;;32.33;28.88;;;;;;;;;;5095509;28;20032;-58
2021/06/08 08:53:52;;;;;;;31.50;27.98;;;;;;;;;;5096320;28;20024;-58
2021/06/08 08:56:18;;;;;;;29.45;26.10;;;;;;;;;;5096149;28;20111;-58
2021/06/08 08:58:45;;;;;;;40.53;29.42;;;;;;;;;;5096044;28;20477;-58
2021/06/08 09:01:11;;;;;;;35.05;28.00;;;;;;;;;;5096864;28;20028;-58
2021/06/08 09:03:38;;;;;;;30.23;27.27;;;;;;;;;;5094657;28;20052;-58
2021/06/08 09:06:04;;;;;;;33.45;29.55;;;;;;;;;;5095940;28;20096;-58
2021/06/08 09:08:30;;;;;;;33.83;30.20;;;;;;;;;;5095589;28;20040;-58
2021/06/08 09:10:59;;;;;;;30.60;27.40;;;;;;;;;;5095906;28;20024;-58
2021/06/08 09:13:25;;;;;;;30.33;27.10;;;;;;;;;;5094515;28;20024;-58
2021/06/08 09:15:51;;;;;;;32.05;28.73;;;;;;;;;;5094158;28;20028;-58
2021/06/08 09:18:19;;;;;;;33.78;29.10;;;;;;;;;;5095740;28;20396;-58
2021/06/08 09:20:45;;;;;;;32.38;28.90;;;;;;;;;;5096509;28;20031;-58
2021/06/08 09:23:11;;;;;;;32.80;29.30;;;;;;;;;;5095580;28;20032;-58
2021/06/08 09:25:38;;;;;;;32.95;29.48;;;;;;;;;;5095481;28;20032;-58
2021/06/08 09:28:13;;;;;;;31.85;28.42;;;;;;;;;;5095480;28;20107;-58
2021/06/08 09:30:39;;;;;;;34.20;30.55;;;;;;;;;;5095425;28;20030;-58
2021/06/08 09:33:31;;;;;;;35.33;30.95;;;;;;;;;;5093714;28;20032;-58
2021/06/08 09:35:59;;;;;;;33.10;29.52;;;;;;;;;;5090207;28;20036;-59
2021/06/08 09:38:34;;;;;;;32.38;29.13;;;;;;;;;;5095334;28;20085;-59
2021/06/08 09:41:13;;;;;;;32.10;28.52;;;;;;;;;;5095251;28;20463;-59
2021/06/08 09:43:48;;;;;;;31.65;28.48;;;;;;;;;;5094663;28;20035;-59
2021/06/08 09:46:14;;;;;;;33.95;30.13;;;;;;;;;;5095105;28;20498;-59
2021/06/08 09:48:53;;;;;;;30.75;27.63;;;;;;;;;;5094968;28;20075;-59
2021/06/08 09:51:19;;;;;;;32.17;28.83;;;;;;;;;;5095396;28;20021;-59
2021/06/08 09:53:45;;;;;;;31.50;28.08;;;;;;;;;;5093880;28;20028;-59
2021/06/08 09:56:13;;;;;;;31.13;28.00;;;;;;;;;;5095248;28;20024;-59
2021/06/08 09:58:43;;;;;;;31.05;27.95;;;;;;;;;;5094780;28;20081;-59
2021/06/08 10:01:09;;;;;;;;;;;;;;;;;;5095833;28;20028;-59
2021/06/08 10:03:53;;;;;;;29.90;26.98;;;;;;;;;;5094580;28;20041;-59
2021/06/08 10:06:23;;;;;;;29.75;26.92;;;;;;;;;;5094708;28;20031;-59
2021/06/08 10:08:50;;;;;;;31.52;28.05;;;;;;;;;;5094535;28;20056;-59
2021/06/08 10:11:24;;;;;;;30.30;27.23;;;;;;;;;;5093428;28;20059;-59
2021/06/08 10:13:53;;;;;;;27.40;24.70;;;;;;;;;;5094240;28;20350;-59
2021/06/08 10:16:27;;;;;;;29.30;26.27;;;;;;;;;;5094879;28;20032;-59
2021/06/08 10:18:53;;;;;;;25.73;23.23;;;;;;;;;;5094626;28;20020;-59
2021/06/08 10:21:32;;;;;;;27.40;24.73;;;;;;;;;;5094554;28;20458;-59
2021/06/08 10:24:12;;;;;;;27.00;24.38;;;;;;;;;;5094849;28;20523;-59
2021/06/08 10:26:45;;;;;;;28.08;25.13;;;;;;;;;;5094558;28;20056;-59
2021/06/08 10:29:11;;;;;;;28.83;25.88;;;;;;;;;;5094288;28;20361;-59
2021/06/08 10:31:39;;;;;;;26.63;23.90;;;;;;;;;;5094254;28;20024;-59
2021/06/08 10:34:06;;;;;;;23.88;21.63;;;;;;;;;;5094820;28;20431;-59
2021/06/08 10:36:32;;;;;;;27.23;24.58;;;;;;;;;;5094748;28;20046;-59
2021/06/08 10:38:59;;;;;;;24.83;22.52;;;;;;;;;;5094678;28;20429;-59
2021/06/08 10:41:26;;;;;;;26.02;23.50;;;;;;;;;;5094247;28;20027;-59
2021/06/08 10:43:52;;;;;;;27.65;24.70;;;;;;;;;;5094005;28;20030;-59
2021/06/08 10:46:37;;;;;;;26.98;24.15;;;;;;;;;;5094104;28;20362;-59
2021/06/08 10:49:06;;;;;;;28.23;23.65;;;;;;;;;;5094345;28;20111;-59
2021/06/08 10:51:34;;;;;;;26.40;23.83;;;;;;;;;;5094319;28;20035;-59
2021/06/08 10:54:16;;;;;;;25.83;23.15;;;;;;;;;;5093895;28;20059;-59
2021/06/08 10:56:55;;;;;;;25.63;23.00;;;;;;;;;;5094011;28;20028;-59
2021/06/08 10:59:33;;;;;;;25.25;22.75;;;;;;;;;;5093943;28;20472;-59
2021/06/08 11:01:59;;;;;;;24.60;22.23;;;;;;;;;;5092882;28;20020;-59
2021/06/08 11:04:28;;;;;;;27.20;22.90;;;;;;;;;;5093551;28;20530;-59
2021/06/08 11:06:55;;;;;;;24.98;22.17;;;;;;;;;;5093907;28;20027;-59
2021/06/08 11:09:25;;;;;;;23.95;21.67;;;;;;;;;;5093782;28;20044;-59
2021/06/08 11:11:57;;;;;;;24.60;22.25;;;;;;;;;;5094110;28;20060;-59
2021/06/08 11:17:06;;;;;;;27.25;24.38;;;;;;;;;;5093677;28;20028;-59
2021/06/08 11:19:44;;;;;;;26.83;24.17;;;;;;;;;;5093817;28;20421;-59
2021/06/08 11:22:10;;;;;;;24.75;22.30;;;;;;;;;;5094099;28;20080;-59
2021/06/08 11:24:47;;;;;;;24.08;21.70;;;;;;;;;;5093481;28;20020;-59
2021/06/08 11:27:13;;;;;;;25.52;23.15;;;;;;;;;;5094094;28;20475;-59
2021/06/08 11:29:47;;;;;;;24.17;21.67;;;;;;;;;;5092383;28;20028;-59
2021/06/08 11:32:28;;;;;;;25.20;22.67;;;;;;;;;;5094056;28;20017;-59
2021/06/08 11:35:17;;;;;;;24.45;22.00;;;;;;;;;;5093568;28;20168;-59
2021/06/08 11:37:51;;;;;;;26.20;23.55;;;;;;;;;;5094100;28;20032;-59
2021/06/08 11:40:38;;;;;;;25.25;22.45;;;;;;;;;;5092327;28;20020;-59
2021/06/08 11:43:06;;;;;;;25.98;23.30;;;;;;;;;;5092913;28;20518;-59
2021/06/08 11:45:33;;;;;;;25.23;22.58;;;;;;;;;;5093409;28;20373;-59
2021/06/08 11:48:00;;;;;;;21.98;19.98;;;;;;;;;;5093505;28;20055;-59
2021/06/08 11:50:46;;;;;;;26.48;23.77;;;;;;;;;;5092710;28;20028;-59
2021/06/08 11:53:13;;;;;;;27.08;24.33;;;;;;;;;;5092736;28;20335;-59
2021/06/08 11:55:39;;;;;;;26.13;23.45;;;;;;;;;;5095285;28;20561;-59
2021/06/08 11:58:24;;;;;;;22.38;20.25;;;;;;;;;;5097783;28;20016;-59
2021/06/08 12:00:53;;;;;;;24.77;22.38;;;;;;;;;;5097514;28;20491;-59
2021/06/08 12:03:30;;;;;;;25.90;23.33;;;;;;;;;;5097703;28;20020;-59
2021/06/08 12:05:57;;;;;;;27.10;22.65;;;;;;;;;;5097382;28;20615;-59
2021/06/08 12:08:27;;;;;;;23.52;21.17;;;;;;;;;;5097273;28;20052;-59
2021/06/08 12:10:54;;;;;;;22.77;20.08;;;;;;;;;;5097684;28;20027;-59
2021/06/08 12:13:33;;;;;;;23.83;21.50;;;;;;;;;;5097000;28;20381;-58
2021/06/08 12:16:00;;;;;;;24.23;21.83;;;;;;;;;;5096988;28;20028;-59
2021/06/08 12:18:35;;;;;;;23.58;21.10;;;;;;;;;;5096819;28;20012;-59
2021/06/08 12:21:03;;;;;;;23.42;21.13;;;;;;;;;;5096839;28;20094;-59
2021/06/08 12:23:30;;;;;;;21.95;19.50;;;;;;;;;;5096779;28;20099;-59
2021/06/08 12:26:09;;;;;;;21.33;19.35;;;;;;;;;;5096063;28;20058;-59
2021/06/08 12:28:35;;;;;;;21.10;19.10;;;;;;;;;;5097121;28;20044;-59
2021/06/08 12:31:14;;;;;;;21.77;19.58;;;;;;;;;;5096380;28;20020;-59
2021/06/08 12:33:41;;;;;;;20.55;18.67;;;;;;;;;;5096804;28;20526;-59
2021/06/08 12:36:08;;;;;;;21.95;19.65;;;;;;;;;;5096841;28;20483;-59
2021/06/08 12:38:34;;;;;;;20.77;18.73;;;;;;;;;;5097022;28;20048;-59
2021/06/08 12:41:02;;;;;;;21.17;19.17;;;;;;;;;;5096819;28;20031;-59
2021/06/08 12:43:28;;;;;;;26.73;17.50;;;;;;;;;;5096998;28;20117;-59
2021/06/08 12:45:58;;;;;;;19.98;17.70;;;;;;;;;;5096395;28;20024;-59
2021/06/08 12:48:25;;;;;;;21.48;19.10;;;;;;;;;;5094914;28;20028;-59
2021/06/08 12:50:51;;;;;;;18.80;16.73;;;;;;;;;;5096609;28;20028;-59
2021/06/08 12:53:21;;;;;;;20.00;17.77;;;;;;;;;;5096174;28;20024;-59
2021/06/08 12:55:48;;;;;;;18.73;16.13;;;;;;;;;;5096112;28;20031;-59
2021/06/08 12:58:14;;;;;;;21.02;18.95;;;;;;;;;;5096165;28;20035;-59
2021/06/08 13:00:40;;;;;;;19.25;17.25;;;;;;;;;;5095862;28;20407;-59
2021/06/08 13:03:06;;;;;;;21.48;19.33;;;;;;;;;;5096048;28;20031;-59
2021/06/08 13:05:35;;;;;;;20.45;18.30;;;;;;;;;;5096110;28;20097;-59
2021/06/08 13:08:01;;;;;;;18.60;16.80;;;;;;;;;;5095579;28;20070;-59
2021/06/08 13:10:34;;;;;;;22.45;19.45;;;;;;;;;;5096088;28;20128;-59
2021/06/08 13:13:08;;;;;;;20.33;16.45;;;;;;;;;;5096370;28;20403;-59
2021/06/08 13:15:36;;;;;;;18.80;16.98;;;;;;;;;;5095719;28;20351;-59
2021/06/08 13:18:12;;;;;;;19.65;17.05;;;;;;;;;;5095797;28;20063;-59
2021/06/08 13:20:41;;;;;;;20.70;18.52;;;;;;;;;;5094211;28;20162;-59
2021/06/08 13:23:17;;;;;;;20.10;18.15;;;;;;;;;;5095210;28;20110;-59
2021/06/08 13:25:54;;;;;;;19.35;17.45;;;;;;;;;;5095928;28;20031;-59
2021/06/08 13:28:29;;;;;;;18.23;16.50;;;;;;;;;;5094590;28;20038;-59
2021/06/08 13:31:02;;;;;;;16.27;14.73;;;;;;;;;;5096078;28;20016;-59
2021/06/08 13:33:28;;;;;;;18.33;16.50;;;;;;;;;;5095636;28;20020;-59
2021/06/08 13:35:54;;;;;;;18.48;16.58;;;;;;;;;;5095655;28;20012;-59
2021/06/08 13:38:21;;;;;;;15.93;14.50;;;;;;;;;;5095318;28;20031;-59
2021/06/08 13:40:49;;;;;;;14.98;13.68;;;;;;;;;;5095874;28;20019;-59
2021/06/08 13:43:15;;;;;;;14.88;13.38;;;;;;;;;;5094489;28;20020;-59
2021/06/08 13:45:46;;;;;;;17.52;15.75;;;;;;;;;;5095203;28;20016;-59
2021/06/08 13:48:32;;;;;;;17.42;15.82;;;;;;;;;;5095635;28;20021;-59
2021/06/08 13:51:16;;;;;;;18.95;17.10;;;;;;;;;;5095108;28;20032;-59
2021/06/08 13:53:44;;;;;;;17.55;15.95;;;;;;;;;;5095024;28;20507;-59
2021/06/08 13:56:25;;;;;;;17.60;15.85;;;;;;;;;;5093671;28;20027;-59
2021/06/08 14:02:10;;;;;;;18.80;17.00;;;;;;;;;;5073265;28;20024;-59
2021/06/08 14:04:40;;;;;;;19.30;17.42;;;;;;;;;;5081965;28;20089;-59
2021/06/08 14:07:06;;;;;;;18.13;16.30;;;;;;;;;;5095443;28;20024;-59
2021/06/08 14:09:38;;;;;;;17.45;15.80;;;;;;;;;;5094622;28;20374;-59
2021/06/08 14:12:05;;;;;;;19.35;17.38;;;;;;;;;;5095309;28;20012;-59
2021/06/08 14:14:32;;;;;;;17.42;15.73;;;;;;;;;;5094682;28;20024;-59
2021/06/08 14:17:10;;;;;;;16.98;15.27;;;;;;;;;;5093568;28;20408;-59
2021/06/08 14:19:36;;;;;;;17.98;16.15;;;;;;;;;;5094025;28;20064;-59
2021/06/08 14:22:02;;;;;;;16.20;14.65;;;;;;;;;;5095118;28;20013;-59
2021/06/08 14:24:29;;;;;;;17.95;16.02;;;;;;;;;;5094798;28;20490;-59
2021/06/08 14:26:55;;;;;;;16.00;13.48;;;;;;;;;;5095306;28;20028;-59
2021/06/08 14:29:22;;;;;;;14.95;13.55;;;;;;;;;;5094992;28;20339;-57
2021/06/08 14:31:49;;;;;;;16.60;14.98;;;;;;;;;;5094938;28;20370;-57
2021/06/08 14:34:15;;;;;;;17.02;15.45;;;;;;;;;;5094071;28;20051;-58
2021/06/08 14:36:41;;;;;;;15.52;13.88;;;;;;;;;;5095053;28;20154;-58